Time;durP1;ratioP1;P1;durP2;ratioP2;P2;SDS_P1;SDS_P2;PMS_P1;PMS_P2;Temp;Humidity;BMP_temperature;BMP_pressure;BME280_temperature;BME280_humidity;BME280_pressure;Samples;Min_cycle;Max_cycle;Signal;HPM_P1;HPM_P2
2022/06/24 00:02:01;;;;;;;14.80;8.15;;;;;;;22.03;78.29;100412.16;3571623;40;20337;-64
2022/06/24 00:04:30;;;;;;;13.85;8.50;;;;;;;21.87;79.32;100438.78;3568156;40;20056;-65
2022/06/24 00:06:57;;;;;;;13.52;8.73;;;;;;;21.76;80.88;100468.22;3567272;40;20052;-65
2022/06/24 00:09:28;;;;;;;13.68;8.35;;;;;;;21.40;80.83;100445.09;3574051;40;20083;-65
2022/06/24 00:12:13;;;;;;;12.65;8.57;;;;;;;21.63;82.08;100494.41;3568323;40;20064;-66
2022/06/24 00:14:42;;;;;;;16.58;11.18;;;;;;;21.54;83.12;100480.78;3569771;40;20057;-67
2022/06/24 00:17:12;;;;;;;20.65;13.27;;;;;;;21.48;84.25;100484.22;3570091;40;20122;-67
2022/06/24 00:19:55;;;;;;;20.30;15.65;;;;;;;21.44;85.58;100490.19;3568033;40;20068;-67
2022/06/24 00:22:23;;;;;;;25.88;18.52;;;;;;;21.38;86.26;100502.69;3567862;40;20362;-71
2022/06/24 00:24:49;;;;;;;24.50;21.83;;;;;;;21.33;86.45;100535.13;3569183;40;20065;-70
2022/06/24 00:27:24;;;;;;;26.70;21.73;;;;;;;21.31;86.64;100545.38;3568138;40;20049;-69
2022/06/24 00:29:54;;;;;;;29.00;23.73;;;;;;;21.26;87.48;100543.16;3570851;40;20080;-70
2022/06/24 00:32:32;;;;;;;27.33;21.77;;;;;;;21.22;86.22;100546.44;3569065;40;20088;-69
2022/06/24 00:35:09;;;;;;;21.85;18.90;;;;;;;21.18;86.25;100556.81;3570860;40;20059;-68
2022/06/24 00:37:37;;;;;;;18.80;15.18;;;;;;;21.07;85.09;100568.97;3570554;40;20182;-69
2022/06/24 00:40:24;;;;;;;19.90;16.15;;;;;;;21.08;85.24;100589.78;3559280;40;20049;-68
2022/06/24 00:42:50;;;;;;;16.25;14.50;;;;;;;21.01;85.40;100576.97;3570711;40;20134;-69
2022/06/24 00:45:24;;;;;;;15.77;12.45;;;;;;;20.94;85.12;100567.75;3568444;40;20390;-69
2022/06/24 00:47:51;;;;;;;14.77;13.02;;;;;;;20.87;85.71;100559.38;3569079;40;20099;-68
2022/06/24 00:50:31;;;;;;;13.73;11.27;;;;;;;20.70;84.81;100524.84;3567880;40;20057;-67
2022/06/24 00:53:00;;;;;;;13.15;10.90;;;;;;;20.57;84.77;100515.25;3568767;40;20110;-67
2022/06/24 00:55:31;;;;;;;12.93;10.57;;;;;;;20.71;85.29;100559.31;3568562;40;20071;-68
2022/06/24 00:58:00;;;;;;;10.65;9.55;;;;;;;20.63;85.69;100560.16;3567084;40;20348;-67
2022/06/24 01:00:31;;;;;;;9.90;7.78;;;;;;;20.53;85.15;100554.84;3568796;40;20071;-67
2022/06/24 01:03:04;;;;;;;7.20;6.47;;;;;;;20.45;84.11;100543.84;3569537;40;20055;-66
2022/06/24 01:05:33;;;;;;;6.70;5.65;;;;;;;20.36;83.76;100533.94;3570262;40;20056;-66
2022/06/24 01:08:07;;;;;;;6.80;4.85;;;;;;;20.30;83.32;100531.91;3571295;40;20064;-66
2022/06/24 01:10:32;;;;;;;6.05;4.13;;;;;;;20.16;82.14;100517.81;3569327;40;20304;-66
2022/06/24 01:12:58;;;;;;;3.90;3.30;;;;;;;20.03;82.37;100501.06;3570562;40;20150;-65
2022/06/24 01:15:24;;;;;;;3.05;2.70;;;;;;;19.27;81.80;100400.09;3568404;40;20088;-64
2022/06/24 01:17:50;;;;;;;3.88;2.40;;;;;;;19.84;81.08;100484.94;3568636;40;20056;-65
2022/06/24 01:20:16;;;;;;;4.22;2.47;;;;;;;19.60;82.12;100464.69;3568973;40;20048;-64
2022/06/24 01:22:42;;;;;;;2.72;2.00;;;;;;;19.64;81.55;100479.75;3566894;40;20061;-65
2022/06/24 01:25:09;;;;;;;2.22;2.03;;;;;;;19.63;82.11;100483.47;3560351;40;20154;-64
2022/06/24 01:27:35;;;;;;;3.10;2.20;;;;;;;19.61;81.51;100495.56;3568579;40;20132;-64
2022/06/24 01:30:02;;;;;;;5.25;2.05;;;;;;;19.58;82.65;100485.81;3566246;40;20080;-64
2022/06/24 01:32:28;;;;;;;7.13;2.33;;;;;;;19.50;81.56;100483.03;3568179;40;20061;-65
2022/06/24 01:34:56;;;;;;;2.95;1.90;;;;;;;19.46;81.66;100482.50;3570908;40;20126;-64
2022/06/24 01:37:23;;;;;;;2.65;1.60;;;;;;;19.42;81.35;100492.03;3567884;40;20053;-64
2022/06/24 01:39:48;;;;;;;3.35;1.90;;;;;;;19.38;81.74;100487.91;3567677;40;20099;-64
2022/06/24 01:42:14;;;;;;;1.85;1.40;;;;;;;19.37;82.05;100485.34;3568559;40;20061;-64
2022/06/24 01:44:40;;;;;;;2.55;1.65;;;;;;;19.37;82.04;100477.16;3568296;40;20057;-64
2022/06/24 01:47:06;;;;;;;1.83;1.60;;;;;;;19.35;82.71;100460.97;3568561;40;20053;-64
2022/06/24 01:49:32;;;;;;;4.22;1.80;;;;;;;19.33;82.44;100453.97;3572257;40;20100;-66
2022/06/24 01:51:59;;;;;;;2.42;1.40;;;;;;;19.05;81.76;100415.13;3569049;40;20071;-64
2022/06/24 01:54:26;;;;;;;1.67;1.35;;;;;;;19.24;80.54;100451.19;3568886;40;20088;-64
2022/06/24 01:56:53;;;;;;;1.70;1.50;;;;;;;19.23;81.54;100454.09;3568336;40;20056;-64
2022/06/24 01:59:19;;;;;;;2.65;1.50;;;;;;;19.25;81.68;100450.19;3569563;40;20122;-64
2022/06/24 02:01:45;;;;;;;2.50;1.70;;;;;;;19.25;81.13;100455.63;3569628;40;20434;-64
2022/06/24 02:04:12;;;;;;;1.80;1.70;;;;;;;19.23;81.45;100444.03;3569043;40;20106;-64
2022/06/24 02:06:38;;;;;;;1.65;1.50;;;;;;;19.20;80.83;100438.91;3567442;40;20165;-63
2022/06/24 02:09:05;;;;;;;1.40;1.30;;;;;;;19.18;81.13;100440.06;3571571;40;20064;-63
2022/06/24 02:14:19;;;;;;;3.17;1.63;;;;;;;19.12;81.72;100452.44;3568955;40;20060;-63
2022/06/24 02:16:46;;;;;;;2.65;1.50;;;;;;;19.15;81.47;100452.13;3567017;40;20061;-63
2022/06/24 02:19:11;;;;;;;2.67;1.40;;;;;;;19.14;81.96;100450.44;3569089;40;20097;-63
2022/06/24 02:21:38;;;;;;;2.47;1.90;;;;;;;19.14;82.53;100450.44;3571210;40;20084;-63
2022/06/24 02:24:05;;;;;;;3.67;1.95;;;;;;;19.16;81.83;100442.13;3565901;40;20090;-63
2022/06/24 02:26:31;;;;;;;1.80;1.70;;;;;;;19.16;81.81;100442.97;3572299;40;20049;-63
2022/06/24 02:28:57;;;;;;;2.20;2.00;;;;;;;19.20;81.94;100438.03;3572761;40;20061;-63
2022/06/24 02:31:23;;;;;;;2.92;1.80;;;;;;;19.20;82.42;100441.63;3568720;40;20059;-62
2022/06/24 02:33:50;;;;;;;2.35;2.15;;;;;;;19.23;82.51;100432.28;3570814;40;20065;-63
2022/06/24 02:36:18;;;;;;;2.30;2.10;;;;;;;19.23;83.23;100433.13;3569088;40;20111;-62
2022/06/24 02:38:43;;;;;;;3.95;2.30;;;;;;;19.16;83.00;100421.16;3572584;40;20056;-63
2022/06/24 02:41:09;;;;;;;3.35;2.03;;;;;;;19.16;84.20;100412.16;3565646;40;20057;-63
2022/06/24 02:43:37;;;;;;;3.35;2.42;;;;;;;19.13;84.40;100410.59;3570567;40;20060;-63
2022/06/24 02:46:11;;;;;;;2.40;2.20;;;;;;;19.13;85.00;100410.59;3569272;40;20431;-63
2022/06/24 02:48:41;;;;;;;4.40;2.40;;;;;;;19.12;85.29;100419.75;3569250;40;20067;-63
2022/06/24 02:51:10;;;;;;;2.97;2.00;;;;;;;19.12;85.28;100408.84;3571288;40;20570;-62
2022/06/24 02:53:37;;;;;;;3.47;2.05;;;;;;;19.11;85.41;100406.31;3567887;40;20060;-63
2022/06/24 02:56:13;;;;;;;2.35;2.15;;;;;;;18.99;84.02;100392.94;3568233;40;20049;-63
2022/06/24 02:58:40;;;;;;;2.30;2.13;;;;;;;19.12;84.75;100397.97;3566342;40;20068;-63
2022/06/24 03:01:07;;;;;;;3.20;2.05;;;;;;;18.94;84.99;100367.22;3566662;40;20403;-63
2022/06/24 03:03:34;;;;;;;2.95;2.10;;;;;;;19.12;85.11;100394.38;3567960;40;20127;-63
2022/06/24 03:06:00;;;;;;;2.38;2.17;;;;;;;19.14;85.71;100395.94;3567792;40;20072;-63
2022/06/24 03:08:27;;;;;;;3.70;2.25;;;;;;;19.14;85.13;100389.63;3571938;40;20056;-63
2022/06/24 03:10:53;;;;;;;2.70;2.50;;;;;;;19.13;85.32;100387.94;3570669;40;20049;-63
2022/06/24 03:13:19;;;;;;;2.88;2.40;;;;;;;19.12;84.00;100388.94;3567855;40;20113;-63
2022/06/24 03:15:48;;;;;;;3.10;2.65;;;;;;;19.14;83.92;100382.31;3568722;40;20336;-63
2022/06/24 03:18:15;;;;;;;3.40;2.50;;;;;;;19.13;83.38;100383.34;3568066;40;20060;-63
2022/06/24 03:20:41;;;;;;;2.78;2.58;;;;;;;19.13;83.97;100383.34;3571143;40;20049;-63
2022/06/24 03:23:07;;;;;;;2.63;2.42;;;;;;;19.08;83.43;100374.78;3568874;40;20056;-63
2022/06/24 03:25:32;;;;;;;3.00;2.55;;;;;;;19.13;84.11;100377.88;3570673;40;20045;-63
2022/06/24 03:28:01;;;;;;;6.32;2.70;;;;;;;19.11;84.42;100382.63;3570485;40;20061;-63
2022/06/24 03:30:27;;;;;;;5.70;2.80;;;;;;;19.07;83.43;100373.09;3568900;40;20147;-63
2022/06/24 03:32:52;;;;;;;5.05;3.08;;;;;;;19.05;84.19;100380.56;3565699;40;20413;-63
2022/06/24 03:35:18;;;;;;;3.30;3.00;;;;;;;19.06;84.28;100378.69;3565560;40;20053;-63
2022/06/24 03:37:44;;;;;;;3.97;3.60;;;;;;;19.07;83.32;100367.63;3570691;40;20165;-63
2022/06/24 03:40:10;;;;;;;3.38;3.08;;;;;;;19.08;83.48;100355.72;3570054;40;20049;-62
2022/06/24 03:42:36;;;;;;;4.57;3.50;;;;;;;19.13;83.58;100360.69;3567532;40;20536;-62
2022/06/24 03:45:02;;;;;;;4.15;3.47;;;;;;;19.15;84.08;100364.94;3569400;40;20059;-62
2022/06/24 03:47:27;;;;;;;4.00;3.70;;;;;;;19.20;84.24;100362.59;3572305;40;20328;-62
2022/06/24 03:49:53;;;;;;;4.45;4.05;;;;;;;19.21;83.78;100364.28;3574642;40;20053;-63
2022/06/24 03:52:18;;;;;;;4.10;3.70;;;;;;;19.21;83.20;100369.75;3569852;40;20367;-62
2022/06/24 03:54:45;;;;;;;5.03;3.90;;;;;;;19.18;84.54;100380.97;3575829;40;20049;-62
2022/06/24 03:57:11;;;;;;;4.32;3.92;;;;;;;19.16;83.63;100393.91;3571718;40;20405;-61
2022/06/24 03:59:37;;;;;;;4.40;4.00;;;;;;;19.22;83.64;100403.31;3570857;40;20050;-62
2022/06/24 04:02:03;;;;;;;5.68;4.30;;;;;;;19.24;84.35;100391.22;3574520;40;20302;-62
2022/06/24 04:04:29;;;;;;;5.20;4.45;;;;;;;19.24;83.55;100404.84;3573156;40;20089;-62
2022/06/24 04:06:55;;;;;;;5.75;4.30;;;;;;;19.20;84.13;100400.75;3570546;40;20064;-62
2022/06/24 04:09:20;;;;;;;5.05;4.55;;;;;;;19.30;84.36;100408.81;3567328;40;20081;-63
2022/06/24 04:11:46;;;;;;;5.25;4.70;;;;;;;19.36;85.00;100415.50;3575905;40;20059;-65
2022/06/24 04:14:12;;;;;;;5.18;4.22;;;;;;;19.37;83.72;100425.38;3573117;40;20418;-62
2022/06/24 04:16:37;;;;;;;6.40;4.82;;;;;;;19.41;83.91;100429.47;3575888;40;20093;-63
2022/06/24 04:19:03;;;;;;;10.40;8.32;;;;;;;19.42;83.81;100431.19;3574633;40;20061;-63
2022/06/24 04:21:31;;;;;;;6.00;5.40;;;;;;;19.44;83.91;100427.31;3572538;40;20052;-62
2022/06/24 04:23:57;;;;;;;6.82;4.97;;;;;;;19.47;83.03;100434.28;3571235;40;20378;-60
2022/06/24 04:26:22;;;;;;;7.18;5.60;;;;;;;19.41;83.07;100430.34;3574888;40;20061;-63
2022/06/24 04:28:50;;;;;;;6.50;5.45;;;;;;;19.44;84.07;100434.59;3569606;40;20061;-62
2022/06/24 04:31:16;;;;;;;7.03;5.35;;;;;;;19.47;83.76;100429.72;3571874;40;20152;-62
2022/06/24 04:33:42;;;;;;;6.85;5.20;;;;;;;19.44;83.20;100418.25;3573654;40;20077;-62
2022/06/24 04:36:15;;;;;;;5.50;5.05;;;;;;;19.47;83.75;100417.91;3569117;40;20057;-62
2022/06/24 04:38:42;;;;;;;7.00;5.63;;;;;;;19.42;83.61;100414.84;3573402;40;20071;-63
2022/06/24 04:41:14;;;;;;;6.47;5.80;;;;;;;19.49;83.87;100427.66;3570836;40;20379;-63
2022/06/24 04:43:40;;;;;;;6.22;5.72;;;;;;;19.51;83.44;100419.31;3570924;40;20104;-62
2022/06/24 04:46:06;;;;;;;7.82;6.05;;;;;;;19.28;83.25;100375.41;3570097;40;20365;-62
2022/06/24 04:48:34;;;;;;;6.75;6.10;;;;;;;19.54;82.95;100412.69;3574722;40;20067;-63
2022/06/24 04:51:00;;;;;;;8.55;6.60;;;;;;;19.54;84.17;100410.81;3570626;40;20061;-63
2022/06/24 04:53:26;;;;;;;10.65;6.93;;;;;;;19.53;84.25;100417.28;3571303;40;20053;-63
2022/06/24 04:55:51;;;;;;;7.35;6.63;;;;;;;19.55;83.84;100419.84;3573965;40;20145;-62
2022/06/24 04:58:17;;;;;;;7.13;6.53;;;;;;;19.53;83.90;100414.53;3571875;40;20068;-63
2022/06/24 05:00:43;;;;;;;8.02;7.22;;;;;;;19.55;84.05;100415.25;3572584;40;20369;-63
2022/06/24 05:03:09;;;;;;;7.55;6.88;;;;;;;19.57;83.96;100423.25;3571049;40;20127;-63
2022/06/24 05:05:35;;;;;;;8.02;7.22;;;;;;;19.58;83.34;100427.69;3571844;40;20041;-63
2022/06/24 05:08:00;;;;;;;7.82;7.03;;;;;;;19.52;83.69;100421.03;3574460;40;20067;-63
2022/06/24 05:10:26;;;;;;;9.90;8.02;;;;;;;19.49;84.20;100426.81;3576408;40;20060;-65
2022/06/24 05:12:52;;;;;;;10.40;8.27;;;;;;;19.49;83.73;100424.94;3575872;40;20047;-63
2022/06/24 05:15:18;;;;;;;9.13;8.23;;;;;;;19.52;84.81;100421.03;3573628;40;20065;-63
2022/06/24 05:17:43;;;;;;;10.82;8.75;;;;;;;19.52;84.09;100431.09;3578112;40;20121;-63
2022/06/24 05:20:10;;;;;;;9.80;8.80;;;;;;;19.47;84.41;100417.91;3571440;40;20068;-63
2022/06/24 05:22:35;;;;;;;10.23;8.90;;;;;;;19.50;84.17;100425.78;3575861;40;20100;-63
2022/06/24 05:25:01;;;;;;;10.38;9.27;;;;;;;19.51;84.95;100429.38;3568464;40;20063;-63
2022/06/24 05:27:27;;;;;;;10.18;9.20;;;;;;;19.53;84.83;100427.31;3572446;40;20053;-63
2022/06/24 05:29:53;;;;;;;9.68;8.65;;;;;;;19.49;84.40;100437.69;3578507;40;20052;-63
2022/06/24 05:32:18;;;;;;;15.13;9.60;;;;;;;19.51;85.01;100441.13;3571377;40;20071;-63
2022/06/24 05:34:44;;;;;;;10.48;8.90;;;;;;;19.46;86.38;100427.97;3570698;40;20061;-63
2022/06/24 05:37:09;;;;;;;10.85;9.73;;;;;;;19.55;85.37;100441.66;3573979;40;20136;-63
2022/06/24 05:39:35;;;;;;;10.35;9.45;;;;;;;19.49;86.03;100433.09;3574247;40;20291;-65
2022/06/24 05:42:01;;;;;;;10.80;9.80;;;;;;;19.52;86.10;100437.38;3573591;40;20052;-63
2022/06/24 05:44:26;;;;;;;11.10;10.00;;;;;;;19.56;86.28;100444.22;3573882;40;20075;-63
2022/06/24 05:46:54;;;;;;;11.05;9.52;;;;;;;19.52;86.23;100426.47;3576827;40;20052;-63
2022/06/24 05:49:21;;;;;;;12.40;10.68;;;;;;;19.59;86.46;100438.44;3572435;40;20059;-63
2022/06/24 05:51:46;;;;;;;13.35;11.80;;;;;;;19.61;85.69;100433.69;3570762;40;20045;-63
2022/06/24 05:56:56;;;;;;;14.18;12.43;;;;;;;19.63;85.52;100431.66;3572275;40;20115;-63
2022/06/24 05:59:22;;;;;;;14.23;12.63;;;;;;;19.66;86.76;100422.31;3569743;40;20073;-64
2022/06/24 06:01:49;;;;;;;16.35;13.88;;;;;;;19.71;86.89;100426.25;3571838;40;20057;-63
2022/06/24 06:04:15;;;;;;;17.38;14.38;;;;;;;19.75;87.13;100423.19;3566949;40;20072;-63
2022/06/24 06:06:40;;;;;;;16.25;14.52;;;;;;;19.78;86.86;100420.16;3575714;40;20052;-63
2022/06/24 06:09:07;;;;;;;20.10;16.25;;;;;;;19.77;87.50;100423.91;3570048;40;20092;-66
2022/06/24 06:11:33;;;;;;;24.48;16.80;;;;;;;19.60;87.54;100399.25;3572690;40;20057;-66
2022/06/24 06:13:58;;;;;;;24.70;18.33;;;;;;;19.85;87.69;100422.06;3572654;40;20056;-65
2022/06/24 06:16:26;;;;;;;26.27;19.42;;;;;;;19.62;87.91;100386.28;3569351;40;20382;-68
2022/06/24 06:18:52;;;;;;;30.33;21.20;;;;;;;19.69;88.01;100395.59;3571716;40;20045;-68
2022/06/24 06:21:19;;;;;;;30.58;21.20;;;;;;;19.94;87.42;100440.16;3570266;40;20387;-66
2022/06/24 06:23:45;;;;;;;31.70;22.92;;;;;;;19.92;87.61;100434.03;3571384;40;20060;-71
2022/06/24 06:26:11;;;;;;;33.17;22.13;;;;;;;19.91;88.60;100425.97;3570037;40;20055;-69
2022/06/24 06:28:39;;;;;;;29.27;22.13;;;;;;;19.94;89.03;100428.38;3572869;40;20064;-70
2022/06/24 06:31:05;;;;;;;29.17;23.02;;;;;;;19.91;88.76;100432.28;3573125;40;20375;-68
2022/06/24 06:33:33;;;;;;;25.00;20.95;;;;;;;19.81;88.99;100417.09;3572893;40;20133;-68
2022/06/24 06:36:11;;;;;;;25.30;19.55;;;;;;;19.91;89.53;100432.28;3576417;40;20401;-69
2022/06/24 06:38:39;;;;;;;22.13;18.80;;;;;;;19.77;87.95;100413.00;3570273;40;20053;-65
2022/06/24 06:41:04;;;;;;;22.75;19.38;;;;;;;19.89;88.01;100433.50;3573345;40;20064;-69
2022/06/24 06:43:30;;;;;;;24.70;19.10;;;;;;;19.86;88.48;100433.81;3574329;40;20063;-68
2022/06/24 06:45:57;;;;;;;27.23;21.98;;;;;;;19.27;89.45;100334.69;3577809;40;20411;-66
2022/06/24 06:48:23;;;;;;;27.15;23.02;;;;;;;19.83;89.77;100413.19;3577499;40;20108;-67
2022/06/24 06:50:57;;;;;;;25.23;22.30;;;;;;;19.93;88.99;100429.41;3577899;40;20071;-67
2022/06/24 06:53:25;;;;;;;47.50;39.85;;;;;;;19.95;89.21;100427.38;3570357;40;20065;-64
2022/06/24 06:55:52;;;;;;;26.80;22.80;;;;;;;;;;3571876;40;20063;-64
2022/06/24 06:58:19;;;;;;;27.73;22.55;;;;;;;19.99;88.55;100426.03;3567709;40;20158;-64
2022/06/24 07:00:45;;;;;;;26.05;23.25;;;;;;;19.99;89.09;100426.03;3566972;40;20363;-69
2022/06/24 07:03:11;;;;;;;26.38;22.88;;;;;;;19.98;89.04;100418.88;3567948;40;20075;-66
2022/06/24 07:05:37;;;;;;;29.40;25.88;;;;;;;20.03;89.65;100423.81;3572148;40;20076;-65
2022/06/24 07:08:04;;;;;;;30.10;26.33;;;;;;;19.99;90.37;100417.84;3572145;40;20056;-64
2022/06/24 07:10:30;;;;;;;30.02;26.73;;;;;;;20.04;90.36;100425.50;3568814;40;20045;-64
2022/06/24 07:12:55;;;;;;;27.63;24.70;;;;;;;20.07;90.54;100426.03;3574144;40;20048;-64
2022/06/24 07:15:24;;;;;;;28.35;24.73;;;;;;;20.07;88.38;100409.66;3572954;40;20054;-63
2022/06/24 07:17:49;;;;;;;28.83;25.73;;;;;;;20.09;90.02;100401.31;3567262;40;20376;-63
2022/06/24 07:20:15;;;;;;;28.77;25.73;;;;;;;20.14;89.49;100394.34;3567899;40;20072;-64
2022/06/24 07:22:41;;;;;;;26.88;24.13;;;;;;;20.20;89.16;100397.41;3574571;40;20057;-62
2022/06/24 07:25:07;;;;;;;31.55;25.65;;;;;;;20.25;89.03;100395.03;3568056;40;20126;-63
2022/06/24 07:27:33;;;;;;;28.85;25.63;;;;;;;20.33;89.32;100392.31;3569896;40;20380;-63
2022/06/24 07:29:59;;;;;;;28.80;25.77;;;;;;;20.39;88.84;100402.56;3570719;40;20052;-63
2022/06/24 07:32:24;;;;;;;28.42;25.63;;;;;;;20.40;87.88;100407.00;3570777;40;20045;-64
2022/06/24 07:34:50;;;;;;;29.75;26.75;;;;;;;20.44;87.55;100410.25;3566872;40;20053;-64
2022/06/24 07:37:16;;;;;;;32.65;29.25;;;;;;;20.43;87.59;100422.22;3566844;40;20096;-64
2022/06/24 07:39:41;;;;;;;31.90;28.60;;;;;;;19.94;87.14;100349.25;3568853;40;20060;-63
2022/06/24 07:42:07;;;;;;;34.72;31.05;;;;;;;20.34;87.87;100432.25;3565481;40;20056;-63
2022/06/24 07:44:33;;;;;;;36.42;32.55;;;;;;;20.31;87.92;100438.03;3566511;40;20165;-63
2022/06/24 07:46:58;;;;;;;37.78;33.78;;;;;;;20.32;88.04;100450.66;3567724;40;20052;-64
2022/06/24 07:49:24;;;;;;;40.00;35.80;;;;;;;20.27;87.44;100453.06;3568507;40;20080;-63
2022/06/24 07:51:50;;;;;;;41.35;36.72;;;;;;;20.32;88.64;100450.66;3571751;40;20072;-63
2022/06/24 07:54:15;;;;;;;43.17;38.30;;;;;;;20.37;87.85;100448.28;3562110;40;20049;-64
2022/06/24 07:56:56;;;;;;;45.65;40.83;;;;;;;20.36;87.57;100438.38;3568562;40;20060;-63
2022/06/24 07:59:25;;;;;;;43.97;39.38;;;;;;;20.45;88.01;100444.72;3570500;40;20380;-63
2022/06/24 08:01:52;;;;;;;45.25;40.53;;;;;;;20.44;86.88;100443.00;3571128;40;20064;-63
2022/06/24 08:04:22;;;;;;;46.67;41.65;;;;;;;20.45;86.52;100447.44;3568204;40;20077;-64
2022/06/24 08:06:50;;;;;;;44.85;40.20;;;;;;;20.51;87.02;100449.50;3572298;40;20118;-64
2022/06/24 08:09:25;;;;;;;44.20;39.50;;;;;;;20.51;86.49;100447.66;3567293;40;20065;-62
2022/06/24 08:11:53;;;;;;;40.35;36.03;;;;;;;20.50;86.15;100445.94;3568300;40;20055;-62
2022/06/24 08:14:20;;;;;;;40.42;36.30;;;;;;;20.39;86.30;100418.94;3568138;40;20423;-62
2022/06/24 08:16:46;;;;;;;39.67;35.47;;;;;;;20.10;85.98;100379.31;3567146;40;20064;-64
2022/06/24 08:19:12;;;;;;;37.55;33.72;;;;;;;20.65;86.14;100451.63;3568628;40;20059;-63
2022/06/24 08:21:38;;;;;;;36.92;33.22;;;;;;;20.71;85.40;100450.06;3571017;40;20126;-63
2022/06/24 08:24:05;;;;;;;35.17;31.77;;;;;;;20.77;85.00;100433.88;3569837;40;20049;-65
2022/06/24 08:26:30;;;;;;;36.17;32.40;;;;;;;20.93;85.25;100433.00;3568436;40;20085;-65
2022/06/24 08:28:56;;;;;;;33.50;30.20;;;;;;;20.77;84.15;100383.81;3570231;40;20074;-65
2022/06/24 08:31:23;;;;;;;29.08;26.27;;;;;;;21.21;83.86;100438.06;3567988;40;20060;-64
2022/06/24 08:33:49;;;;;;;25.48;23.08;;;;;;;21.38;82.79;100428.88;3567362;40;20380;-65
2022/06/24 08:36:14;;;;;;;24.63;22.35;;;;;;;21.59;80.71;100430.16;3564990;40;20064;-65
2022/06/24 08:38:40;;;;;;;24.75;22.30;;;;;;;21.65;80.64;100394.75;3566169;40;20055;-64
2022/06/24 08:41:06;;;;;;;24.42;22.02;;;;;;;22.08;79.90;100438.16;3565728;40;20057;-65
2022/06/24 08:43:35;;;;;;;28.58;25.92;;;;;;;22.16;78.26;100446.34;3567881;40;20374;-65
2022/06/24 08:46:03;;;;;;;27.13;24.63;;;;;;;22.24;77.73;100449.06;3566592;40;20065;-65
2022/06/24 08:48:33;;;;;;;28.13;25.42;;;;;;;22.27;77.21;100443.22;3571688;40;20066;-65
2022/06/24 08:51:01;;;;;;;28.02;25.35;;;;;;;22.30;78.03;100442.84;3568962;40;20085;-64
2022/06/24 08:53:29;;;;;;;27.98;25.45;;;;;;;22.18;77.10;100392.28;3567918;40;20049;-64
2022/06/24 08:55:56;;;;;;;28.58;25.73;;;;;;;22.81;76.57;100439.59;3567537;40;20053;-65
2022/06/24 08:58:22;;;;;;;29.23;26.48;;;;;;;22.98;75.17;100434.84;3569949;40;20052;-64
2022/06/24 09:00:48;;;;;;;28.25;25.75;;;;;;;23.12;75.23;100436.75;3570739;40;20049;-65
2022/06/24 09:03:14;;;;;;;29.30;26.65;;;;;;;23.11;72.61;100426.81;3572342;40;20069;-65
2022/06/24 09:05:41;;;;;;;26.90;24.40;;;;;;;23.11;72.57;100432.31;3570930;40;20130;-65
2022/06/24 09:08:13;;;;;;;25.08;22.70;;;;;;;22.96;70.87;100434.16;3570589;40;20048;-65
2022/06/24 09:10:43;;;;;;;23.15;20.83;;;;;;;22.83;71.34;100432.00;3569661;40;20044;-65
2022/06/24 09:13:21;;;;;;;19.90;18.00;;;;;;;22.75;71.26;100435.69;3570032;40;20041;-65
2022/06/24 09:15:54;;;;;;;20.80;18.80;;;;;;;23.00;71.55;100430.03;3569264;40;20049;-64
2022/06/24 09:18:24;;;;;;;18.67;16.88;;;;;;;23.50;70.56;100439.44;3573985;40;20064;-63
2022/06/24 09:21:00;;;;;;;18.50;16.77;;;;;;;23.63;69.92;100435.00;3570197;40;20060;-64
2022/06/24 09:23:26;;;;;;;16.77;15.05;;;;;;;23.72;68.23;100440.41;3568382;40;20056;-64
2022/06/24 09:26:00;;;;;;;16.60;14.95;;;;;;;23.79;66.94;100444.97;3573700;40;20076;-64
2022/06/24 09:28:31;;;;;;;13.25;11.95;;;;;;;23.95;67.01;100412.88;3575076;40;20367;-63
2022/06/24 09:31:09;;;;;;;13.13;11.82;;;;;;;24.38;66.36;100429.41;3569502;40;20071;-63
2022/06/24 09:33:41;;;;;;;16.20;11.90;;;;;;;24.68;64.80;100439.28;3571131;40;20084;-63
2022/06/24 09:36:10;;;;;;;13.30;11.05;;;;;;;24.99;64.08;100438.06;3568239;40;20055;-63
2022/06/24 09:38:54;;;;;;;10.13;9.23;;;;;;;25.37;61.88;100432.25;3568557;40;20099;-63
2022/06/24 09:41:20;;;;;;;10.70;9.80;;;;;;;25.48;60.37;100395.91;3569858;40;20488;-64
2022/06/24 09:43:46;;;;;;;8.73;7.93;;;;;;;25.80;61.78;100429.34;3571502;40;20071;-63
2022/06/24 09:46:22;;;;;;;8.60;7.82;;;;;;;25.92;59.28;100431.31;3566258;40;20108;-63
2022/06/24 09:48:51;;;;;;;9.13;8.23;;;;;;;26.06;60.02;100432.22;3569306;40;20055;-63
2022/06/24 09:51:17;;;;;;;7.97;7.18;;;;;;;26.21;57.87;100425.72;3567054;40;20067;-65
2022/06/24 09:53:45;;;;;;;8.70;7.40;;;;;;;25.74;57.12;100383.34;3568462;40;20069;-66
2022/06/24 09:56:13;;;;;;;7.88;7.13;;;;;;;25.68;58.20;100427.13;3563766;40;20403;-64
2022/06/24 10:00:40;;;;;;;11.43;9.43;;;;;;;25.41;58.01;100433.56;3568275;40;20053;-65
2022/06/24 10:01:32;;;;;;;7.65;6.90;;;;;;;25.29;59.28;100433.25;3565406;40;20060;-63
2022/06/24 10:04:00;;;;;;;7.38;6.68;;;;;;;25.40;61.87;100434.59;3567672;40;20101;-63
2022/06/24 10:06:30;;;;;;;7.40;6.38;;;;;;;25.66;61.62;100421.00;3566852;40;20053;-65
2022/06/24 10:09:02;;;;;;;7.45;6.75;;;;;;;25.79;59.08;100433.16;3567085;40;20059;-65
2022/06/24 10:11:33;;;;;;;7.07;6.38;;;;;;;25.95;58.41;100441.09;3567913;40;20427;-65
2022/06/24 10:14:01;;;;;;;7.88;6.13;;;;;;;25.95;55.87;100419.06;3567406;40;20053;-65
2022/06/24 10:16:26;;;;;;;7.35;6.65;;;;;;;26.27;57.95;100430.41;3567337;40;20057;-65
2022/06/24 10:18:54;;;;;;;7.18;6.55;;;;;;;26.30;55.68;100433.59;3567377;40;20056;-65
2022/06/24 10:21:21;;;;;;;7.80;7.10;;;;;;;26.17;56.04;100456.44;3566870;40;20068;-65
2022/06/24 10:23:46;;;;;;;8.32;7.05;;;;;;;25.72;56.19;100479.88;3558576;40;20057;-65
2022/06/24 10:26:25;;;;;;;3.25;2.88;;;;;;;24.84;55.79;100487.66;3567473;40;20162;-65
2022/06/24 10:29:00;;;;;;;2.30;1.30;;;;;;;24.02;56.22;100494.28;3568447;40;20048;-64
2022/06/24 10:34:33;;;;;;;5.72;2.30;;;;;;;22.41;66.51;100488.16;3569394;40;20135;-65
2022/06/24 10:37:23;;;;;;;4.13;2.40;;;;;;;21.86;69.92;100478.13;3568300;40;20053;-65
2022/06/24 10:39:52;;;;;;;4.25;2.25;;;;;;;21.49;72.38;100477.69;3567384;40;20052;-66
2022/06/24 10:42:21;;;;;;;4.80;2.67;;;;;;;21.22;73.10;100476.19;3568572;40;20138;-65
2022/06/24 10:45:02;;;;;;;3.60;2.90;;;;;;;21.09;74.93;100479.44;3568100;40;20061;-64
2022/06/24 10:47:36;;;;;;;4.57;3.00;;;;;;;20.92;75.38;100480.47;3569153;40;20177;-66
2022/06/24 10:50:02;;;;;;;4.70;3.40;;;;;;;20.81;75.52;100497.22;3571358;40;20045;-65
2022/06/24 10:53:02;;;;;;;4.78;3.83;;;;;;;20.73;76.41;100494.47;3567686;40;20083;-66
2022/06/24 10:55:32;;;;;;;8.70;6.93;;;;;;;20.70;77.84;100479.25;3570685;40;20372;-65
2022/06/24 10:58:05;;;;;;;6.63;4.50;;;;;;;20.62;77.32;100482.84;3569961;40;20049;-65
2022/06/24 11:00:39;;;;;;;3.90;3.60;;;;;;;20.58;77.80;100465.09;3567716;40;20065;-65
2022/06/24 11:03:05;;;;;;;3.60;3.00;;;;;;;20.58;76.79;100466.94;3569990;40;20613;-65
2022/06/24 11:05:35;;;;;;;3.38;3.08;;;;;;;20.61;77.48;100470.22;3569546;40;20049;-66
2022/06/24 11:08:03;;;;;;;2.75;2.55;;;;;;;20.57;77.09;100466.09;3570590;40;20049;-65
2022/06/24 11:10:31;;;;;;;3.65;2.72;;;;;;;20.55;78.93;100450.91;3568708;40;20049;-69
2022/06/24 11:13:03;;;;;;;3.92;3.38;;;;;;;20.66;78.01;100466.13;3570545;40;20045;-65
2022/06/24 11:15:55;;;;;;;3.50;3.08;;;;;;;20.71;78.22;100455.53;3572502;40;20384;-66
2022/06/24 11:18:27;;;;;;;3.13;2.78;;;;;;;20.80;78.59;100454.50;3570822;40;20087;-65
2022/06/24 11:20:56;;;;;;;2.35;2.15;;;;;;;21.20;77.33;100445.44;3570353;40;20387;-61
2022/06/24 11:23:25;;;;;;;2.13;2.03;;;;;;;21.70;76.38;100440.72;3567870;40;20400;-62
2022/06/24 11:25:56;;;;;;;2.55;1.23;;;;;;;22.07;73.66;100442.75;3568940;40;20053;-62
2022/06/24 11:28:32;;;;;;;1.85;1.10;;;;;;;22.23;72.07;100441.84;3569149;40;20045;-63
2022/06/24 11:31:18;;;;;;;1.25;0.98;;;;;;;22.36;71.71;100436.66;3568748;40;20387;-63
2022/06/24 11:33:48;;;;;;;1.42;1.15;;;;;;;22.39;70.99;100436.31;3570113;40;20118;-65